createdAt,value
2023-04-10T00:00:39.320Z,7.18
2023-04-10T00:03:06.958Z,7.40
2023-04-10T00:05:34.290Z,6.96
2023-04-10T00:08:02.886Z,6.65
2023-04-10T00:10:31.695Z,6.47
2023-04-10T00:13:00.890Z,6.10
2023-04-10T00:15:28.755Z,5.98
2023-04-10T00:17:55.981Z,5.55
2023-04-10T00:20:26.174Z,5.53
2023-04-10T00:22:53.312Z,5.31
2023-04-10T00:25:20.682Z,5.15
2023-04-10T00:27:47.783Z,5.19
2023-04-10T00:30:14.875Z,5.51
2023-04-10T00:32:43.709Z,5.78
2023-04-10T00:35:10.848Z,5.76
2023-04-10T00:37:38.401Z,6.04
2023-04-10T00:40:06.698Z,6.25
2023-04-10T00:42:33.908Z,6.22
2023-04-10T00:45:01.204Z,6.04
2023-04-10T00:47:29.005Z,5.63
2023-04-10T00:49:56.342Z,5.44
2023-04-10T00:52:26.101Z,5.51
2023-04-10T00:54:53.199Z,5.42
2023-04-10T00:57:20.341Z,5.47
2023-04-10T00:59:48.857Z,5.22
2023-04-10T01:02:18.148Z,5.36
2023-04-10T01:04:45.802Z,5.52
2023-04-10T01:07:47.302Z,5.51
2023-04-10T01:10:53.880Z,5.85
2023-04-10T01:13:43.630Z,5.25
2023-04-10T01:16:52.234Z,5.21
2023-04-10T01:19:49.228Z,5.67
2023-04-10T01:22:17.489Z,6.71
2023-04-10T01:25:38.453Z,7.10
2023-04-10T01:28:12.017Z,7.33
2023-04-10T01:30:40.511Z,7.41
2023-04-10T01:33:13.623Z,6.74
2023-04-10T01:35:46.039Z,5.76
2023-04-10T01:38:15.860Z,5.27
2023-04-10T01:40:50.264Z,5.43
2023-04-10T01:43:19.462Z,5.94
2023-04-10T01:45:49.388Z,6.33
2023-04-10T01:48:18.686Z,6.74
2023-04-10T01:50:47.777Z,6.27
2023-04-10T01:53:15.917Z,5.51
2023-04-10T01:55:43.684Z,5.06
2023-04-10T01:58:11.971Z,5.10
2023-04-10T02:00:41.836Z,5.90
2023-04-10T02:03:10.820Z,6.60
2023-04-10T02:06:35.404Z,6.34
2023-04-10T02:09:38.111Z,6.06
2023-04-10T02:12:15.616Z,6.64
2023-04-10T02:14:47.998Z,6.36
2023-04-10T02:17:23.592Z,6.83
2023-04-10T02:19:53.318Z,7.10
2023-04-10T02:22:21.999Z,7.29
2023-04-10T02:24:50.108Z,7.32
2023-04-10T02:27:27.689Z,6.86
2023-04-10T02:29:54.793Z,5.92
2023-04-10T02:32:21.857Z,5.42
2023-04-10T02:34:48.968Z,5.86
2023-04-10T02:37:16.624Z,6.36
2023-04-10T02:39:43.704Z,6.75
2023-04-10T02:42:11.104Z,6.92
2023-04-10T02:44:39.590Z,6.19
2023-04-10T02:47:07.156Z,4.98
2023-04-10T02:49:35.109Z,5.05
2023-04-10T02:52:02.573Z,4.54
2023-04-10T02:54:29.671Z,4.48
2023-04-10T02:57:00.416Z,4.42
2023-04-10T02:59:27.760Z,4.48
2023-04-10T03:01:54.952Z,4.73
2023-04-10T03:04:22.133Z,4.42
2023-04-10T03:06:49.356Z,4.58
2023-04-10T03:09:16.986Z,4.74
2023-04-10T03:11:44.069Z,4.68
2023-04-10T03:14:11.146Z,4.50
2023-04-10T03:16:38.366Z,4.24
2023-04-10T03:19:05.725Z,4.20
2023-04-10T03:21:32.879Z,4.22
2023-04-10T03:23:59.998Z,4.44
2023-04-10T03:26:28.346Z,4.69
2023-04-10T03:28:55.491Z,5.24
2023-04-10T03:31:22.684Z,5.77
2023-04-10T03:33:49.985Z,5.37
2023-04-10T03:36:17.254Z,5.23
2023-04-10T03:38:46.402Z,5.54
2023-04-10T03:41:13.581Z,5.60
2023-04-10T03:43:40.728Z,5.34
2023-04-10T03:46:07.801Z,5.15
2023-04-10T03:48:34.873Z,4.97
2023-04-10T03:51:04.298Z,4.40
2023-04-10T03:53:35.902Z,4.11
2023-04-10T03:56:04.145Z,4.18
2023-04-10T03:58:31.329Z,4.41
2023-04-10T04:00:58.511Z,4.12
2023-04-10T04:03:25.749Z,4.13
2023-04-10T04:05:52.891Z,4.45
2023-04-10T04:08:20.011Z,4.50
2023-04-10T04:10:47.149Z,4.43
2023-04-10T04:13:14.192Z,4.07
2023-04-10T04:15:42.302Z,3.87
2023-04-10T04:18:10.626Z,3.76
2023-04-10T04:20:37.686Z,3.70
2023-04-10T04:23:04.750Z,3.73
2023-04-10T04:25:31.832Z,3.89
2023-04-10T04:27:58.927Z,3.59
2023-04-10T04:30:26.001Z,3.27
2023-04-10T04:32:53.076Z,3.10
2023-04-10T04:35:20.244Z,3.19
2023-04-10T04:37:49.460Z,3.38
2023-04-10T04:40:16.629Z,3.41
2023-04-10T04:42:43.695Z,3.51
2023-04-10T04:45:11.279Z,4.02
2023-04-10T04:47:38.402Z,4.56
2023-04-10T04:50:06.672Z,4.34
2023-04-10T04:52:35.276Z,3.78
2023-04-10T04:55:02.432Z,3.40
2023-04-10T04:57:29.437Z,3.71
2023-04-10T04:59:56.643Z,3.72
2023-04-10T05:02:23.876Z,4.36
2023-04-10T05:04:51.368Z,4.55
2023-04-10T05:07:18.421Z,4.28
2023-04-10T05:09:45.507Z,4.16
2023-04-10T05:12:12.624Z,4.40
2023-04-10T05:14:39.709Z,4.32
2023-04-10T05:17:07.795Z,4.29
2023-04-10T05:19:34.851Z,4.24
2023-04-10T05:22:01.911Z,4.89
2023-04-10T05:24:28.956Z,4.67
2023-04-10T05:26:56.039Z,4.83
2023-04-10T05:29:24.748Z,5.12
2023-04-10T05:31:53.388Z,5.53
2023-04-10T05:34:20.819Z,5.72
2023-04-10T05:36:47.880Z,5.59
2023-04-10T05:39:15.778Z,5.99
2023-04-10T05:41:42.937Z,6.41
2023-04-10T05:44:10.079Z,6.75
2023-04-10T05:46:37.246Z,7.09
2023-04-10T05:49:04.351Z,6.99
2023-04-10T05:51:31.950Z,7.43
2023-04-10T05:53:59.029Z,7.64
2023-04-10T05:56:28.136Z,7.27
2023-04-10T05:58:55.474Z,8.06
2023-04-10T06:01:22.904Z,7.76
2023-04-10T06:03:50.144Z,7.96
2023-04-10T06:06:21.784Z,8.11
2023-04-10T06:08:50.296Z,8.42
2023-04-10T06:11:17.399Z,8.13
2023-04-10T06:13:44.487Z,8.48
2023-04-10T06:16:11.884Z,7.82
2023-04-10T06:18:41.888Z,8.45
2023-04-10T06:21:09.104Z,8.60
2023-04-10T06:23:37.223Z,8.90
2023-04-10T06:26:04.708Z,10.06
2023-04-10T06:28:31.769Z,9.41
2023-04-10T06:30:58.939Z,9.63
2023-04-10T06:33:26.380Z,9.80
2023-04-10T06:35:53.530Z,10.87
2023-04-10T06:38:22.963Z,11.65
2023-04-10T06:40:51.649Z,10.94
2023-04-10T06:43:18.692Z,11.83
2023-04-10T06:45:46.350Z,10.76
2023-04-10T06:48:13.640Z,11.06
2023-04-10T06:50:40.791Z,11.95
2023-04-10T06:53:08.011Z,11.86
2023-04-10T06:55:35.272Z,11.78
2023-04-10T06:58:02.361Z,11.59
2023-04-10T07:00:31.173Z,12.26
2023-04-10T07:02:58.418Z,12.01
2023-04-10T07:05:25.524Z,11.92
2023-04-10T07:07:53.264Z,11.83
2023-04-10T07:10:20.798Z,12.76
2023-04-10T07:12:47.948Z,12.32
2023-04-10T07:15:15.059Z,12.60
2023-04-10T07:17:42.456Z,12.89
2023-04-10T07:20:10.648Z,12.63
2023-04-10T07:22:38.949Z,12.09
2023-04-10T07:25:07.293Z,12.68
2023-04-10T07:27:34.554Z,13.17
2023-04-10T07:30:01.733Z,13.13
2023-04-10T07:32:28.972Z,13.84
2023-04-10T07:34:56.189Z,14.41
2023-04-10T07:37:23.293Z,14.33
2023-04-10T07:39:50.385Z,13.46
2023-04-10T07:42:17.451Z,14.10
2023-04-10T07:44:44.596Z,14.54
2023-04-10T07:47:11.831Z,14.62
2023-04-10T07:49:38.975Z,14.73
2023-04-10T07:52:06.234Z,15.06
2023-04-10T07:54:36.566Z,15.21
2023-04-10T07:57:03.652Z,15.14
2023-04-10T07:59:30.839Z,13.16
2023-04-10T08:01:58.089Z,14.46
2023-04-10T08:04:25.542Z,15.17
2023-04-10T08:06:52.922Z,15.03
2023-04-10T08:09:20.542Z,15.09
2023-04-10T08:11:47.936Z,15.40
2023-04-10T08:14:17.965Z,14.70
2023-04-10T08:16:45.935Z,14.92
2023-04-10T08:19:13.249Z,16.03
2023-04-10T08:21:40.414Z,16.33
2023-04-10T08:24:07.649Z,15.76
2023-04-10T08:26:37.669Z,16.45
2023-04-10T08:29:04.764Z,15.30
2023-04-10T08:31:32.079Z,15.80
2023-04-10T08:33:59.754Z,15.22
2023-04-10T08:36:27.685Z,16.25
2023-04-10T08:38:54.808Z,16.65
2023-04-10T08:41:22.088Z,16.76
2023-04-10T08:43:51.300Z,16.99
2023-04-10T08:46:18.537Z,16.62
2023-04-10T08:49:05.487Z,17.36
2023-04-10T08:51:43.941Z,17.61
2023-04-10T08:54:28.465Z,16.60
2023-04-10T08:56:58.441Z,17.18
2023-04-10T08:59:27.636Z,16.14
2023-04-10T09:01:54.829Z,17.89
2023-04-10T09:04:23.384Z,18.52
2023-04-10T09:06:50.758Z,17.96
2023-04-10T09:09:17.928Z,18.53
2023-04-10T09:12:00.236Z,18.59
2023-04-10T09:14:32.612Z,17.65
2023-04-10T09:17:21.597Z,16.36
2023-04-10T09:19:49.416Z,16.68
2023-04-10T09:22:17.316Z,18.67
2023-04-10T09:24:47.759Z,19.05
2023-04-10T09:27:37.210Z,18.19
2023-04-10T09:30:07.156Z,18.52
2023-04-10T09:33:02.176Z,18.57
2023-04-10T09:35:39.612Z,18.04
2023-04-10T09:38:21.784Z,19.32
2023-04-10T09:40:49.655Z,19.29
2023-04-10T09:43:27.311Z,17.61
2023-04-10T09:45:57.466Z,17.45
2023-04-10T09:48:29.098Z,19.20
2023-04-10T09:50:57.669Z,18.92
2023-04-10T09:53:25.319Z,19.58
2023-04-10T09:55:52.506Z,18.47
2023-04-10T09:58:19.602Z,18.21
2023-04-10T10:00:50.015Z,19.11
2023-04-10T10:03:23.016Z,19.16
2023-04-10T10:05:54.553Z,18.27
2023-04-10T10:08:22.838Z,18.24
2023-04-10T10:10:57.417Z,19.06
2023-04-10T10:13:46.813Z,19.12
2023-04-10T10:16:47.002Z,19.01
2023-04-10T10:19:29.209Z,19.89
2023-04-10T10:21:57.422Z,18.94
2023-04-10T10:24:26.451Z,18.91
2023-04-10T10:26:57.261Z,19.13
2023-04-10T10:29:30.212Z,20.24
2023-04-10T10:31:59.914Z,18.99
2023-04-10T10:34:27.198Z,19.62
2023-04-10T10:36:54.650Z,18.87
2023-04-10T10:40:14.281Z,19.31
2023-04-10T10:43:05.836Z,19.85
2023-04-10T10:45:57.340Z,19.43
2023-04-10T10:48:24.702Z,19.85
2023-04-10T10:51:01.974Z,19.62
2023-04-10T10:53:45.884Z,20.20
2023-04-10T10:56:18.889Z,19.10
2023-04-10T10:58:56.071Z,18.48
2023-04-10T11:01:24.331Z,19.51
2023-04-10T11:03:51.703Z,20.37
2023-04-10T11:06:48.626Z,19.47
2023-04-10T11:09:57.166Z,21.59
2023-04-10T11:12:25.460Z,20.44
2023-04-10T11:15:04.939Z,21.38
2023-04-10T11:17:54.233Z,22.02
2023-04-10T11:20:25.741Z,21.73
2023-04-10T11:23:13.076Z,21.66
2023-04-10T11:25:52.903Z,21.02
2023-04-10T11:28:32.213Z,20.51
2023-04-10T11:31:22.028Z,20.58
2023-04-10T11:34:02.585Z,22.69
2023-04-10T11:36:31.939Z,21.66
2023-04-10T11:39:09.078Z,20.15
2023-04-10T11:41:42.702Z,20.75
2023-04-10T11:44:14.543Z,22.04
2023-04-10T11:46:47.907Z,21.65
2023-04-10T11:49:29.826Z,22.60
2023-04-10T11:51:59.275Z,22.38
2023-04-10T11:54:29.602Z,20.31
2023-04-10T11:57:09.780Z,21.16
2023-04-10T11:59:37.102Z,21.56
2023-04-10T12:02:17.417Z,22.71
2023-04-10T12:04:44.950Z,23.06
2023-04-10T12:07:12.286Z,21.78
2023-04-10T12:09:39.665Z,21.83
2023-04-10T12:12:08.303Z,22.08
2023-04-10T12:14:42.401Z,21.69
2023-04-10T12:17:12.860Z,23.17
2023-04-10T12:19:41.756Z,22.30
2023-04-10T12:22:12.855Z,22.48
2023-04-10T12:24:50.668Z,19.75
2023-04-10T12:27:27.494Z,20.60
2023-04-10T12:29:59.004Z,22.24
2023-04-10T12:32:27.827Z,24.13
2023-04-10T12:35:01.297Z,23.22
2023-04-10T12:37:54.352Z,23.77
2023-04-10T12:40:21.585Z,24.42
2023-04-10T12:42:48.832Z,23.94
2023-04-10T12:45:15.893Z,24.03
2023-04-10T12:47:54.271Z,22.41
2023-04-10T12:50:21.816Z,22.86
2023-04-10T12:53:11.814Z,23.23
2023-04-10T12:55:40.829Z,23.22
2023-04-10T12:58:20.558Z,21.28
2023-04-10T13:00:49.077Z,22.79
2023-04-10T13:03:16.355Z,23.18
2023-04-10T13:05:44.688Z,23.49
2023-04-10T13:08:12.011Z,23.25
2023-04-10T13:10:40.484Z,22.58
2023-04-10T13:13:13.878Z,22.28
2023-04-10T13:15:41.605Z,22.79
2023-04-10T13:18:10.408Z,23.17
2023-04-10T13:20:41.193Z,22.73
2023-04-10T13:23:08.778Z,22.20
2023-04-10T13:25:40.598Z,23.83
2023-04-10T13:28:11.119Z,22.02
2023-04-10T13:30:42.321Z,22.07
2023-04-10T13:33:10.238Z,21.95
2023-04-10T13:35:37.510Z,23.56
2023-04-10T13:38:09.131Z,23.85
2023-04-10T13:40:36.185Z,22.47
2023-04-10T13:43:05.782Z,21.66
2023-04-10T13:45:33.691Z,23.83
2023-04-10T13:48:00.973Z,23.35
2023-04-10T13:50:28.159Z,23.76
2023-04-10T13:52:55.264Z,24.31
2023-04-10T13:55:22.523Z,22.92
2023-04-10T13:57:49.545Z,22.13
2023-04-10T14:00:17.425Z,24.13
2023-04-10T14:02:45.771Z,22.58
2023-04-10T14:05:12.923Z,22.60
2023-04-10T14:07:39.985Z,21.41
2023-04-10T14:10:08.381Z,21.76
2023-04-10T14:12:37.072Z,23.83
2023-04-10T14:15:05.954Z,22.56
2023-04-10T14:17:34.813Z,21.64
2023-04-10T14:20:01.973Z,22.07
2023-04-10T14:22:30.331Z,21.01
2023-04-10T14:25:09.423Z,22.02
2023-04-10T14:27:40.690Z,21.63
2023-04-10T14:30:10.069Z,20.80
2023-04-10T14:32:39.284Z,20.73
2023-04-10T14:35:07.359Z,21.46
2023-04-10T14:37:34.474Z,21.20
2023-04-10T14:40:01.677Z,21.70
2023-04-10T14:42:28.940Z,22.01
2023-04-10T14:45:01.059Z,21.85
2023-04-10T14:47:31.633Z,21.84
2023-04-10T14:49:58.850Z,21.48
2023-04-10T14:52:27.654Z,20.74
2023-04-10T14:54:54.769Z,21.64
2023-04-10T14:57:21.951Z,21.20
2023-04-10T14:59:49.058Z,20.89
2023-04-10T15:02:16.180Z,22.75
2023-04-10T15:04:43.399Z,22.45
2023-04-10T15:07:10.459Z,22.23
2023-04-10T15:09:37.803Z,22.48
2023-04-10T15:12:05.247Z,21.38
2023-04-10T15:14:32.511Z,21.04
2023-04-10T15:16:59.722Z,20.97
2023-04-10T15:19:27.330Z,21.29
2023-04-10T15:21:55.693Z,21.94
2023-04-10T15:24:25.182Z,22.73
2023-04-10T15:26:53.552Z,22.79
2023-04-10T15:29:23.539Z,22.01
2023-04-10T15:31:51.259Z,20.35
2023-04-10T15:34:19.061Z,21.32
2023-04-10T15:36:46.163Z,20.08
2023-04-10T15:39:13.482Z,22.08
2023-04-10T15:41:42.620Z,20.62
2023-04-10T15:44:09.925Z,21.58
2023-04-10T15:46:37.891Z,21.57
2023-04-10T15:49:05.356Z,21.39
2023-04-10T15:51:32.497Z,20.57
2023-04-10T15:54:04.799Z,21.01
2023-04-10T15:56:33.339Z,22.23
2023-04-10T15:59:00.495Z,21.40
2023-04-10T16:01:27.839Z,20.77
2023-04-10T16:03:55.314Z,21.44
2023-04-10T16:06:25.827Z,20.88
2023-04-10T16:08:53.218Z,20.03
2023-04-10T16:11:24.111Z,20.72
2023-04-10T16:13:51.195Z,20.32
2023-04-10T16:16:18.816Z,19.01
2023-04-10T16:18:46.478Z,20.69
2023-04-10T16:21:16.817Z,20.85
2023-04-10T16:23:44.110Z,21.27
2023-04-10T16:26:11.182Z,20.04
2023-04-10T16:28:40.704Z,19.36
2023-04-10T16:31:07.875Z,20.29
2023-04-10T16:33:34.972Z,20.74
2023-04-10T16:36:05.023Z,20.69
2023-04-10T16:38:34.475Z,21.06
2023-04-10T16:41:05.866Z,19.89
2023-04-10T16:43:32.978Z,20.75
2023-04-10T16:46:00.330Z,19.67
2023-04-10T16:48:27.751Z,20.29
2023-04-10T16:50:54.895Z,20.68
2023-04-10T16:53:22.344Z,20.69
2023-04-10T16:56:02.803Z,19.99
2023-04-10T16:58:31.473Z,19.94
2023-04-10T17:00:58.912Z,20.49
2023-04-10T17:03:26.701Z,19.84
2023-04-10T17:05:53.774Z,20.33
2023-04-10T17:08:20.833Z,18.74
2023-04-10T17:10:47.848Z,18.89
2023-04-10T17:13:20.391Z,18.77
2023-04-10T17:15:47.488Z,17.83
2023-04-10T17:18:15.163Z,16.94
2023-04-10T17:20:42.345Z,16.96
2023-04-10T17:23:09.403Z,16.27
2023-04-10T17:25:40.593Z,16.49
2023-04-10T17:28:08.373Z,16.56
2023-04-10T17:30:35.824Z,16.27
2023-04-10T17:33:02.971Z,16.20
2023-04-10T17:35:30.365Z,16.12
2023-04-10T17:37:57.435Z,15.93
2023-04-10T17:40:24.990Z,15.84
2023-04-10T17:42:52.122Z,15.78
2023-04-10T17:45:19.455Z,15.22
2023-04-10T17:47:46.548Z,15.19
2023-04-10T17:50:13.692Z,14.90
2023-04-10T17:52:40.918Z,14.59
2023-04-10T17:55:08.979Z,14.53
2023-04-10T17:57:36.003Z,14.30
2023-04-10T18:00:09.321Z,14.42
2023-04-10T18:02:36.524Z,14.41
2023-04-10T18:05:03.795Z,14.14
2023-04-10T18:07:30.833Z,14.46
2023-04-10T18:09:57.880Z,14.13
2023-04-10T18:12:24.942Z,13.84
2023-04-10T18:14:52.080Z,13.78
2023-04-10T18:17:19.182Z,13.63
2023-04-10T18:19:46.320Z,13.84
2023-04-10T18:22:13.343Z,14.01
2023-04-10T18:24:40.508Z,14.35
2023-04-10T18:27:07.585Z,14.34
2023-04-10T18:29:34.628Z,14.28
2023-04-10T18:32:01.749Z,14.13
2023-04-10T18:34:28.796Z,13.98
2023-04-10T18:36:56.610Z,13.96
2023-04-10T18:39:23.744Z,14.20
2023-04-10T18:41:50.785Z,14.50
2023-04-10T18:44:17.872Z,14.43
2023-04-10T18:46:48.615Z,14.38
2023-04-10T18:49:21.004Z,14.12
2023-04-10T18:51:48.050Z,13.83
2023-04-10T18:54:15.218Z,14.01
2023-04-10T18:56:42.288Z,13.72
2023-04-10T18:59:09.454Z,13.83
2023-04-10T19:01:36.841Z,13.56
2023-04-10T19:04:04.005Z,13.52
2023-04-10T19:06:32.696Z,13.49
2023-04-10T19:09:00.030Z,13.52
2023-04-10T19:11:27.214Z,13.74
2023-04-10T19:13:54.727Z,13.44
2023-04-10T19:16:22.391Z,13.63
2023-04-10T19:18:49.744Z,13.60
2023-04-10T19:21:16.898Z,13.20
2023-04-10T19:23:44.836Z,13.26
2023-04-10T19:26:11.929Z,13.47
2023-04-10T19:28:40.449Z,13.80
2023-04-10T19:31:08.439Z,14.08
2023-04-10T19:33:35.564Z,13.72
2023-04-10T19:36:02.680Z,13.91
2023-04-10T19:38:30.560Z,13.89
2023-04-10T19:40:57.702Z,13.81
2023-04-10T19:43:25.066Z,14.17
2023-04-10T19:45:53.286Z,13.75
2023-04-10T19:48:22.706Z,13.91
2023-04-10T19:50:49.762Z,14.10
2023-04-10T19:53:16.871Z,14.27
2023-04-10T19:55:44.841Z,14.24
2023-04-10T19:58:30.040Z,14.54
2023-04-10T20:01:06.329Z,14.01
2023-04-10T20:03:37.556Z,14.61
2023-04-10T20:06:07.569Z,14.03
2023-04-10T20:08:35.857Z,13.86
2023-04-10T20:11:06.307Z,13.94
2023-04-10T20:13:34.754Z,13.57
2023-04-10T20:16:05.140Z,13.66
2023-04-10T20:18:32.367Z,14.17
2023-04-10T20:20:59.538Z,14.31
2023-04-10T20:23:26.605Z,13.96
2023-04-10T20:25:53.669Z,13.89
2023-04-10T20:28:20.845Z,13.78
2023-04-10T20:30:47.901Z,14.25
2023-04-10T20:33:17.862Z,14.31
2023-04-10T20:35:45.698Z,14.13
2023-04-10T20:38:12.800Z,14.41
2023-04-10T20:40:42.764Z,13.60
2023-04-10T20:43:13.953Z,14.00
2023-04-10T20:45:41.430Z,13.80
2023-04-10T20:48:11.387Z,13.95
2023-04-10T20:50:45.781Z,13.03
2023-04-10T20:53:13.272Z,13.41
2023-04-10T20:55:40.977Z,14.10
2023-04-10T20:58:08.221Z,14.36
2023-04-10T21:00:35.670Z,13.75
2023-04-10T21:03:05.979Z,13.76
2023-04-10T21:05:33.099Z,14.12
2023-04-10T21:08:00.300Z,14.68
2023-04-10T21:10:27.358Z,14.47
2023-04-10T21:12:54.424Z,14.23
2023-04-10T21:15:22.378Z,14.73
2023-04-10T21:17:51.912Z,14.44
2023-04-10T21:20:19.041Z,14.58
2023-04-10T21:22:46.174Z,14.66
2023-04-10T21:25:13.327Z,14.49
2023-04-10T21:27:40.406Z,13.36
2023-04-10T21:30:08.751Z,13.52
2023-04-10T21:32:35.881Z,13.77
2023-04-10T21:35:03.059Z,14.30
2023-04-10T21:37:30.931Z,14.75
2023-04-10T21:39:58.068Z,14.85
2023-04-10T21:42:25.146Z,13.94
2023-04-10T21:44:54.126Z,14.63
2023-04-10T21:47:21.303Z,14.37
2023-04-10T21:49:48.557Z,14.54
2023-04-10T21:52:15.603Z,15.08
2023-04-10T21:54:42.683Z,14.33
2023-04-10T21:57:09.727Z,13.92
2023-04-10T21:59:37.263Z,14.65
2023-04-10T22:02:04.409Z,14.44
2023-04-10T22:04:33.102Z,14.50
2023-04-10T22:07:00.269Z,14.17
2023-04-10T22:09:27.315Z,14.31
2023-04-10T22:11:54.465Z,14.67
2023-04-10T22:14:21.619Z,14.55
2023-04-10T22:16:48.736Z,13.62
2023-04-10T22:19:15.919Z,13.98
2023-04-10T22:21:43.106Z,14.34
2023-04-10T22:24:11.099Z,14.65
2023-04-10T22:26:38.283Z,14.36
2023-04-10T22:29:05.577Z,14.23
2023-04-10T22:31:32.784Z,14.23
2023-04-10T22:33:59.870Z,13.97
2023-04-10T22:36:35.407Z,14.20
2023-04-10T22:39:03.519Z,14.16
2023-04-10T22:41:31.784Z,14.17
2023-04-10T22:43:58.971Z,13.66
2023-04-10T22:46:26.162Z,13.70
2023-04-10T22:48:55.013Z,13.83
2023-04-10T22:51:22.328Z,14.41
2023-04-10T22:53:49.370Z,14.23
2023-04-10T22:56:17.153Z,13.78
2023-04-10T22:58:44.202Z,14.41
2023-04-10T23:01:14.268Z,14.41
2023-04-10T23:03:41.574Z,13.70
2023-04-10T23:06:09.282Z,14.20
2023-04-10T23:08:36.872Z,14.04
2023-04-10T23:11:04.056Z,14.37
2023-04-10T23:13:31.158Z,13.67
2023-04-10T23:15:58.318Z,14.31
2023-04-10T23:18:25.553Z,14.36
2023-04-10T23:20:52.642Z,14.67
2023-04-10T23:23:20.008Z,13.85
2023-04-10T23:25:56.648Z,14.37
2023-04-10T23:28:23.736Z,13.32
2023-04-10T23:30:50.868Z,13.72
2023-04-10T23:33:18.389Z,14.18
2023-04-10T23:35:45.569Z,13.99
2023-04-10T23:38:12.657Z,12.93
2023-04-10T23:40:39.721Z,14.02
2023-04-10T23:43:06.829Z,14.49
2023-04-10T23:45:33.881Z,14.12
2023-04-10T23:48:00.959Z,14.44
2023-04-10T23:50:28.007Z,14.51
2023-04-10T23:52:55.289Z,14.22
2023-04-10T23:55:22.855Z,13.91
2023-04-10T23:57:49.944Z,14.59
